Mount Tom, Massachusetts
Current Conditions -  °F | °C
As of 1:53 PM on Thursday 30 Oct 2014 (Local Time) from KBAF Reporting Station
Overcast Overcast  
Wind Chill: 54°   Ceiling: 5000
Heat Index: 54°   Visibility: 10mi
Dew Point: 35°   Wind: 12mph
Humidity: 49%   Direction: 310°NW
Pressure: 29.95"   Gusts: NA
Location:  42.2952°N, 72.7431°W
Report Text: KBAF 301753Z 31010KT 10SM OVC050 12/02 A2995 RMK AO2 SLP144 T01220017 10133 20033 57006
Loading
Personal Weather Stations






























Interactive Weather Map
Tropical Storm Tracking
New forecast layout! Learn more

10-Day Weather Forecast

Advertisements
Track Severe Weather on mobile